Terminal Aerodrome Forecast
Issued by NWS

Home | Current Version | Previous Version | Text Only | Print | Product List | Glossary On
Versions: 1 2 3 4 5 6 7 8 9 10 11 12 13 14 15 16 17 18
000
FTUS43 KIND 262300
TAFHUF
TAF
KHUF 262320Z 2700/2724 34008KT P6SM SCT025 OVC080
      TEMPO 2700/2703 -SHSN BKN025
     FM270500 34005KT P6SM SCT025
     FM271500 32006KT P6SM BKN040=

USA.gov is the U.S. government's official web portal to all federal, state and local government web resources and services.